Terminal Aerodrome Forecast
Issued by NWS Houston/Galveston, TX

Home | Current Version | Previous Version | Text Only | Print | Product List | Glossary On
Versions: 1 2 3 4 5 6 7 8 9 10 11 12 13 14 15 16 17 18 19 20 21 22 23 24 25 26 27 28 29 30 31 32
000
FTUS44 KHGX 011411 AAA
TAFCLL
TAF AMD
KCLL 011411Z 0114/0212 18007KT P6SM BKN026 OVC030
     FM011700 18012G21KT P6SM VCTS SCT025 BKN035CB
     FM012100 17013G22KT P6SM VCSH SCT035 BKN050
     FM020300 16010KT P6SM BKN025
     FM020900 16009KT P6SM BKN010 BKN015=

USA.gov is the U.S. government's official web portal to all federal, state and local government web resources and services.